Česky Dansk Deutsch English Español Suomi Français Magyar Italiano Nederlands norsk Polski Português svenska Türkçe

 

Het Weer

Savonlinna (Finland)

09:50, 23 augustus 2016 (GMT)

NWNNE
WE
SWSSE
Home            
Savonlinna Varkaus Joensuu Mikkeli Lappeenranta Kuopio Utti Jyvaskyla Viitasaari Halli St. Peterburg Ahtari Kajaani Helsinki-Vantaa Helsinki-Malmi Tampere / Pirkkala Seinajoki-Ilmajok Ilmajoki Suomussalmi Kauhava Kruunupyy Tallinn Oulu

Om een weerknop op uw website of weblog te plaatsen, copieer onderstaande code en plak die in uw pagina. In het eerste vakje staat HTML-code, in het tweede vakje UBB-code.


Add to Google

Details

Wind speed:1 bf, 3 kn, 1.5 m/s, 3.5 miles/h, 5.6 km/h
Wind direction:SW, 220°
Visibility:Greater than 10000 m, 10 km, 32800 ft, 6.2 miles
Clouds:Ein wenig bewölkt at 1400 ft, 427 m
Durchbrochene Bewölkung at 13700 ft, 4176 m
Temperature:17°C, 63°F
Dew-point:15°C, 59°F
Atmospheric pressure:1019 hPa, 764.3 mmHg, 30.09 inHg, 1.006 atm
Relative humidity:88.0 %
METAR:EFSA 230950Z AUTO 22003KT 9999 FEW014 BKN137 17/15 Q1019

Snelkoppelingen

Actuele weersinformatie van de hele wereld. Voeg locaties toe met het plus (+) symbool. Deze snelkoppelingen kunnen worden toegevoegd aan Google.

Lid van de Technetium groep

website free tracking
StatCounter NetStat W3C Validator

06-12-2019 10:24:09
astro.technetium.be money.technetium.be phote.technetium.be tafeltennistafel.technetium.be www.ligfiets.net